Penny Lane Striders 10k
Skip Navigation Links
Results
Details
26 June 2016
HyperLink
Any enquiries email sarah@tempoevents.co.uk
Page 1 of 9 (401 items)
[1]23456789
Pos
Race No
Fav
Name
Time
Net Time *
Category
Cat Pos
Gender
Gen Pos
Club
261Stuart Johnson00:00:0000:00:00M SenMaleSpectrum Striders
1135Paul Sankey00:34:5500:34:55MV451Male1Liverpool Harriers & Athletic Club
2194Mark Clair00:35:1000:35:10M Sen1Male2Knowsley Harriers AC
3449Andy Mcque00:35:3900:35:37M Sen2Male3Liverpool Harriers & Athletic Club
4440Colin Bishop00:35:5400:35:54MV551Male4Helsby Running Club
5146Richard Smith00:36:1600:36:16M Sen3Male5Preston Harriers
6204Craig Vernon00:36:2300:36:23M Sen4Male6 
7454Stu Doyle00:36:2800:36:28MV401Male7Knowsley Harriers AC
8311Joseph Boden00:36:3800:36:38M Sen5Male8Wallasey A C
980Robert Kelly00:36:5200:36:52M Sen6Male9Knowsley Harriers AC
10417Thomas O'dowd00:36:5300:36:53M Sen7Male10Knowsley Harriers AC
1118Adam Gordon00:37:0100:37:00MV402Male11Helsby Running Club
12301Neil Holding00:37:0400:37:03MV552Male12West Pennine Runners
13386Robert Dewhurst00:37:0700:37:06MV403Male13 
1497Neil Finegan00:37:2000:37:19MV404Male14Helsby Running Club
15127Ant Cassidy00:38:0600:38:06MV405Male15Mossley Hill AC
16116Rob Pearse00:38:1400:38:13MV406Male16Wallasey A C
17315Chris Fitzpatrick00:38:1900:38:18M Sen8Male17Helsby Running Club
18264Robbie Collins00:38:2400:38:23M Sen9Male18Liverpool Harriers & Athletic Club
19321Thomas Harkin00:38:2900:38:28MV407Male19 
20410Will Kozer00:38:3400:38:33M Sen10Male20 
22374Thomas Fletcher00:38:3700:38:34M Sen12Male22Astley & Tyldesley Road Runners
23334Simon Redhead00:38:4300:38:35M Sen13Male23 
2192Shaun Phoenix00:38:3500:38:35M Sen11Male21St Helens Striders
2531Degsy Morris00:38:4600:38:40MV408Male25Helsby Running Club
24100David Lawton00:38:4300:38:42M Sen14Male24Liverpool Running Club
26341Tony Lanzarotti00:38:5300:38:49MV452Male26 
27234Chris Pownell00:38:5700:38:54M Sen15Male27Knowsley Harriers AC
283David Edwards00:38:5900:38:56MV501Male28Kirkby Milers AC
29195Oliver Carey00:39:0300:39:00M Sen16Male29 
30272Lee Foley00:39:0400:39:01M Sen17Male30Preston Harriers
31375Michael Connor00:39:1300:39:10M Sen18Male31 
32297Ralph Pawling00:39:1500:39:11M Sen19Male32Pensby Runners
33361Helen Sahgal00:39:1900:39:18F Sen1Female1Mersey tri
34173Gary O'connor00:39:2100:39:21MV453Male33Helsby Running Club
36113Andrew Grimshaw00:39:3200:39:25M Sen21Male35Preston Harriers
35339Michal Ondrej00:39:3100:39:30M Sen20Male34Darlington Tri
37415Chris Wales00:39:5600:39:52MV409Male36Preston Harriers
38366Lee Walmsley00:40:0200:39:56MV4010Male37Kirkby Milers AC
39164Christopher Gallivan00:40:0600:40:04MV4011Male38Liverpool Running Club
40495Alex Cowin00:40:1100:40:09M Sen22Male39Penny Lane Striders
41407Andrew Leslie00:40:2800:40:25M Sen23Male40Widnes Running Club
429Kenneth Day00:40:2900:40:29M Sen24Male41Kirkby Milers AC
467Kevin Smyth00:40:3900:40:30M Sen26Male45Liverpool Running Club
44371Jack Poland00:40:3300:40:30M Sen25Male43Wallasey A C
43388Peter Cruse00:40:3300:40:31MV502Male42Wesham Road Runners
4586Richard Hankins00:40:3800:40:35MV4012Male44Helsby Running Club
47405David Mcculloch00:40:4300:40:39M Sen27Male46Kirkby Milers AC
4840Alex Rigby00:40:4600:40:43M Sen28Male47Liverpool Running Club
49153Jim Savage00:40:5000:40:46MV4013Male48Kirkby Milers AC
Page 1 of 9 (401 items)
[1]23456789

HyperLink Copyright (c) G Vincent, 2017